createdAt,value
2023-04-18T00:02:38.982Z,40.80
2023-04-18T00:05:49.817Z,40.90
2023-04-18T00:09:03.282Z,41.00
2023-04-18T00:12:18.248Z,40.90
2023-04-18T00:15:30.923Z,41.10
2023-04-18T00:18:44.804Z,41.20
2023-04-18T00:21:57.870Z,40.60
2023-04-18T00:25:09.402Z,40.80
2023-04-18T00:28:21.158Z,41.00
2023-04-18T00:31:34.197Z,41.00
2023-04-18T00:34:45.068Z,41.00
2023-04-18T00:37:58.256Z,41.30
2023-04-18T00:41:06.183Z,41.50
2023-04-18T00:44:21.532Z,41.20
2023-04-18T00:47:32.805Z,41.30
2023-04-18T00:50:43.752Z,42.00
2023-04-18T00:53:57.996Z,42.60
2023-04-18T00:57:06.620Z,42.80
2023-04-18T01:00:22.525Z,42.30
2023-04-18T01:03:33.091Z,42.60
2023-04-18T01:06:43.148Z,43.40
2023-04-18T01:09:55.918Z,43.10
2023-04-18T01:16:40.964Z,42.80
2023-04-18T01:19:53.427Z,43.20
2023-04-18T01:23:02.783Z,43.00
2023-04-18T01:26:15.374Z,43.10
2023-04-18T01:29:28.506Z,42.50
2023-04-18T01:32:38.411Z,42.40
2023-04-18T01:35:48.644Z,42.40
2023-04-18T01:39:00.577Z,42.40
2023-04-18T01:42:13.949Z,42.40
2023-04-18T01:45:25.413Z,42.10
2023-04-18T01:48:36.478Z,41.70
2023-04-18T01:51:47.756Z,42.30
2023-04-18T01:55:01.773Z,42.70
2023-04-18T01:58:18.735Z,42.50
2023-04-18T02:01:31.051Z,42.30
2023-04-18T02:04:41.460Z,41.90
2023-04-18T02:07:52.563Z,42.10
2023-04-18T02:11:02.007Z,42.00
2023-04-18T02:14:16.414Z,41.60
2023-04-18T02:17:29.200Z,41.50
2023-04-18T02:20:41.857Z,42.00
2023-04-18T02:23:53.703Z,41.90
2023-04-18T02:27:05.635Z,41.90
2023-04-18T02:30:22.596Z,41.70
2023-04-18T02:33:34.359Z,41.50
2023-04-18T02:36:46.213Z,42.10
2023-04-18T02:39:57.110Z,42.40
2023-04-18T02:43:11.962Z,42.60
2023-04-18T02:46:20.898Z,42.60
2023-04-18T02:49:34.926Z,42.40
2023-04-18T02:52:46.803Z,43.00
2023-04-18T02:55:58.415Z,43.00
2023-04-18T02:59:10.588Z,42.50
2023-04-18T03:02:22.479Z,42.50
2023-04-18T03:05:32.046Z,42.60
2023-04-18T03:08:44.448Z,43.20
2023-04-18T03:11:56.102Z,42.70
2023-04-18T03:15:06.232Z,42.40
2023-04-18T03:18:22.103Z,41.90
2023-04-18T03:21:31.983Z,42.10
2023-04-18T03:24:43.562Z,42.20
2023-04-18T03:27:56.148Z,42.00
2023-04-18T03:31:07.639Z,41.70
2023-04-18T03:34:19.782Z,41.50
2023-04-18T03:37:31.573Z,41.70
2023-04-18T03:40:44.722Z,41.60
2023-04-18T03:43:54.768Z,41.30
2023-04-18T03:47:10.546Z,41.50
2023-04-18T03:50:23.886Z,43.30
2023-04-18T03:53:33.391Z,43.10
2023-04-18T03:56:44.894Z,43.00
2023-04-18T03:59:54.777Z,42.10
2023-04-18T04:03:06.230Z,41.80
2023-04-18T04:06:15.480Z,41.80
2023-04-18T04:09:26.940Z,41.60
2023-04-18T04:12:38.368Z,41.50
2023-04-18T04:15:45.934Z,41.20
2023-04-18T04:18:58.144Z,41.10
2023-04-18T04:22:12.124Z,40.90
2023-04-18T04:25:27.600Z,40.80
2023-04-18T04:28:39.577Z,40.80
2023-04-18T04:31:53.565Z,40.70
2023-04-18T04:35:05.277Z,40.60
2023-04-18T04:38:17.244Z,40.40
2023-04-18T04:41:28.367Z,40.20
2023-04-18T04:44:38.144Z,40.30
2023-04-18T04:47:47.514Z,40.20
2023-04-18T04:51:03.794Z,40.10
2023-04-18T04:54:14.498Z,40.10
2023-04-18T04:57:23.923Z,40.10
2023-04-18T05:00:37.041Z,40.10
2023-04-18T05:03:48.645Z,40.70
2023-04-18T05:07:01.522Z,40.00
2023-04-18T05:10:16.400Z,39.70
2023-04-18T05:13:30.400Z,39.70
2023-04-18T05:16:42.069Z,39.70
2023-04-18T05:19:56.775Z,39.70
2023-04-18T05:23:07.323Z,39.70
2023-04-18T05:26:19.949Z,39.60
2023-04-18T05:29:30.392Z,39.70
2023-04-18T05:32:40.670Z,39.70
2023-04-18T05:35:54.682Z,39.70
2023-04-18T05:39:06.990Z,39.60
2023-04-18T05:42:16.333Z,39.60
2023-04-18T05:45:30.416Z,39.60
2023-04-18T05:48:40.059Z,39.50
2023-04-18T05:51:51.713Z,39.50
2023-04-18T05:55:05.461Z,39.40
2023-04-18T05:58:16.415Z,39.40
2023-04-18T06:01:28.152Z,39.50
2023-04-18T06:04:38.866Z,39.50
2023-04-18T06:11:09.350Z,39.20
2023-04-18T06:14:19.734Z,39.30
2023-04-18T06:17:29.524Z,39.30
2023-04-18T06:20:39.152Z,39.30
2023-04-18T06:23:51.148Z,39.20
2023-04-18T06:27:02.636Z,39.20
2023-04-18T06:30:15.237Z,39.30
2023-04-18T06:33:27.147Z,39.20
2023-04-18T06:36:39.254Z,39.20
2023-04-18T06:39:49.542Z,39.20
2023-04-18T06:43:02.488Z,39.20
2023-04-18T06:46:13.895Z,39.30
2023-04-18T06:49:26.647Z,39.20
2023-04-18T06:52:41.451Z,39.10
2023-04-18T06:55:52.617Z,39.10
2023-04-18T06:59:04.693Z,39.10
2023-04-18T07:02:14.486Z,39.20
2023-04-18T07:05:24.802Z,39.10
2023-04-18T07:08:38.434Z,39.10
2023-04-18T07:11:53.150Z,39.10
2023-04-18T07:15:05.376Z,39.10
2023-04-18T07:18:30.323Z,39.10
2023-04-18T07:21:32.993Z,39.10
2023-04-18T07:24:45.643Z,39.00
2023-04-18T07:31:14.281Z,39.10
2023-04-18T07:34:29.687Z,39.00
2023-04-18T07:37:42.454Z,39.00
2023-04-18T07:40:54.532Z,38.80
2023-04-18T07:44:08.514Z,38.90
2023-04-18T07:47:22.651Z,38.90
2023-04-18T07:50:34.913Z,39.00
2023-04-18T07:53:47.532Z,38.90
2023-04-18T07:56:59.983Z,38.90
2023-04-18T08:00:17.362Z,38.90
2023-04-18T08:03:28.307Z,38.90
2023-04-18T08:06:41.398Z,38.90
2023-04-18T08:09:54.809Z,38.80
2023-04-18T08:13:06.112Z,38.90
2023-04-18T08:16:19.873Z,38.90
2023-04-18T08:19:28.115Z,38.90
2023-04-18T08:22:50.054Z,38.80
2023-04-18T08:25:50.564Z,38.90
2023-04-18T08:29:03.005Z,39.00
2023-04-18T08:32:14.080Z,38.90
2023-04-18T08:35:26.111Z,38.90
2023-04-18T08:38:39.445Z,38.80
2023-04-18T08:41:48.941Z,38.60
2023-04-18T08:44:59.983Z,38.70
2023-04-18T08:48:09.912Z,38.70
2023-04-18T08:51:23.237Z,38.80
2023-04-18T08:54:38.863Z,38.70
2023-04-18T08:57:51.052Z,38.70
2023-04-18T09:01:02.968Z,38.80
2023-04-18T09:04:15.532Z,38.80
2023-04-18T09:07:30.767Z,38.80
2023-04-18T09:10:46.654Z,38.70
2023-04-18T09:14:01.165Z,38.70
2023-04-18T09:17:14.858Z,38.80
2023-04-18T09:20:39.465Z,38.80
2023-04-18T09:23:52.562Z,38.70
2023-04-18T09:27:05.634Z,38.60
2023-04-18T09:30:21.183Z,38.70
2023-04-18T09:33:36.050Z,38.70
2023-04-18T09:36:47.513Z,38.80
2023-04-18T09:39:59.876Z,38.70
2023-04-18T09:43:25.142Z,38.70
2023-04-18T09:46:36.233Z,38.70
2023-04-18T09:49:47.651Z,38.70
2023-04-18T09:52:58.639Z,38.60
2023-04-18T09:56:14.000Z,38.60
2023-04-18T09:59:30.304Z,38.60
2023-04-18T10:02:49.683Z,38.60
2023-04-18T10:06:03.454Z,38.60
2023-04-18T10:09:16.277Z,38.50
2023-04-18T10:12:30.669Z,38.40
2023-04-18T10:15:44.395Z,38.50
2023-04-18T10:18:57.373Z,38.60
2023-04-18T10:22:09.019Z,38.50
2023-04-18T10:25:21.446Z,38.50
2023-04-18T10:28:33.642Z,38.50
2023-04-18T10:31:44.601Z,38.60
2023-04-18T10:34:55.319Z,38.60
2023-04-18T10:38:09.514Z,38.60
2023-04-18T10:41:27.474Z,38.60
2023-04-18T10:44:39.556Z,38.60
2023-04-18T10:47:50.401Z,38.60
2023-04-18T10:51:22.580Z,38.60
2023-04-18T10:54:36.451Z,38.60
2023-04-18T10:57:53.319Z,38.70
2023-04-18T11:01:03.068Z,38.70
2023-04-18T11:04:23.438Z,38.50
2023-04-18T11:07:38.189Z,38.60
2023-04-18T11:10:52.479Z,38.50
2023-04-18T11:14:03.700Z,38.90
2023-04-18T11:17:24.322Z,39.30
2023-04-18T11:20:38.150Z,39.30
2023-04-18T11:23:52.720Z,39.30
2023-04-18T11:27:02.689Z,39.00
2023-04-18T11:30:15.902Z,38.70
2023-04-18T11:33:27.329Z,38.90
2023-04-18T11:36:40.688Z,39.30
2023-04-18T11:39:50.361Z,39.80
2023-04-18T11:43:03.497Z,39.60
2023-04-18T11:46:14.446Z,39.80
2023-04-18T11:49:35.973Z,39.80
2023-04-18T11:52:44.404Z,39.60
2023-04-18T11:56:04.107Z,39.60
2023-04-18T11:59:17.246Z,40.00
2023-04-18T12:02:30.511Z,40.20
2023-04-18T12:05:38.171Z,40.60
2023-04-18T12:08:52.995Z,40.70
2023-04-18T12:12:05.497Z,40.50
2023-04-18T12:15:20.467Z,40.90
2023-04-18T12:18:32.495Z,40.90
2023-04-18T12:21:47.309Z,40.70
2023-04-18T12:25:29.539Z,40.40
2023-04-18T12:28:40.475Z,39.70
2023-04-18T12:31:52.516Z,39.90
2023-04-18T12:35:05.542Z,40.00
2023-04-18T12:38:17.180Z,39.90
2023-04-18T12:41:28.168Z,40.00
2023-04-18T12:44:42.909Z,40.20
2023-04-18T12:47:56.553Z,40.30
2023-04-18T12:51:09.269Z,40.50
2023-04-18T12:54:19.605Z,40.40
2023-04-18T12:57:30.543Z,40.70
2023-04-18T13:00:44.363Z,40.90
2023-04-18T13:04:08.374Z,40.30
2023-04-18T13:07:06.697Z,39.80
2023-04-18T13:10:23.270Z,39.80
2023-04-18T13:13:35.179Z,40.20
2023-04-18T13:16:47.153Z,39.90
2023-04-18T13:19:58.910Z,40.10
2023-04-18T13:23:13.182Z,39.70
2023-04-18T13:26:23.411Z,39.80
2023-04-18T13:29:33.483Z,40.00
2023-04-18T13:32:46.207Z,40.00
2023-04-18T13:35:57.897Z,39.90
2023-04-18T13:39:09.777Z,39.70
2023-04-18T13:42:21.303Z,38.90
2023-04-18T13:45:31.391Z,38.60
2023-04-18T13:48:46.043Z,38.60
2023-04-18T13:51:58.942Z,38.70
2023-04-18T13:55:09.981Z,38.70
2023-04-18T13:58:22.822Z,38.80
2023-04-18T14:01:33.667Z,38.90
2023-04-18T14:04:42.137Z,39.00
2023-04-18T14:07:51.032Z,39.20
2023-04-18T14:11:05.332Z,39.30
2023-04-18T14:14:17.058Z,39.30
2023-04-18T14:17:28.433Z,39.30
2023-04-18T14:20:40.241Z,39.30
2023-04-18T14:23:52.083Z,39.20
2023-04-18T14:27:03.443Z,39.30
2023-04-18T14:30:20.110Z,39.40
2023-04-18T14:33:31.547Z,39.50
2023-04-18T14:36:41.087Z,39.50
2023-04-18T14:39:51.940Z,39.60
2023-04-18T14:43:03.401Z,39.30
2023-04-18T14:46:22.431Z,38.80
2023-04-18T14:49:33.124Z,38.70
2023-04-18T14:52:45.139Z,38.90
2023-04-18T14:55:57.019Z,39.20
2023-04-18T14:59:06.532Z,39.30
2023-04-18T15:02:16.919Z,39.30
2023-04-18T15:05:29.513Z,39.50
2023-04-18T15:08:40.234Z,39.30
2023-04-18T15:11:50.560Z,39.40
2023-04-18T15:15:01.136Z,39.60
2023-04-18T15:18:13.172Z,39.70
2023-04-18T15:21:26.255Z,39.50
2023-04-18T15:24:39.727Z,39.80
2023-04-18T15:27:49.384Z,39.80
2023-04-18T15:30:57.620Z,39.70
2023-04-18T15:34:07.892Z,38.90
2023-04-18T15:37:18.846Z,38.80
2023-04-18T15:40:34.662Z,39.10
2023-04-18T15:43:47.115Z,40.00
2023-04-18T15:47:03.088Z,41.30
2023-04-18T15:50:17.123Z,42.50
2023-04-18T15:53:27.220Z,41.80
2023-04-18T15:56:40.173Z,41.50
2023-04-18T15:59:49.812Z,41.60
2023-04-18T16:03:02.380Z,40.80
2023-04-18T16:06:15.729Z,40.50
2023-04-18T16:09:22.378Z,40.50
2023-04-18T16:12:32.422Z,40.50
2023-04-18T16:15:46.515Z,40.60
2023-04-18T16:18:58.335Z,40.80
2023-04-18T16:22:08.928Z,40.50
2023-04-18T16:25:19.987Z,40.90
2023-04-18T16:28:31.252Z,41.20
2023-04-18T16:31:45.980Z,41.30
2023-04-18T16:34:54.749Z,41.40
2023-04-18T16:38:06.706Z,41.20
2023-04-18T16:41:18.393Z,41.80
2023-04-18T16:44:30.017Z,41.80
2023-04-18T16:47:38.713Z,41.80
2023-04-18T16:50:52.135Z,41.50
2023-04-18T16:54:01.576Z,41.30
2023-04-18T16:57:12.337Z,41.00
2023-04-18T17:00:24.521Z,40.60
2023-04-18T17:03:33.627Z,39.80
2023-04-18T17:06:48.836Z,39.70
2023-04-18T17:10:02.811Z,40.10
2023-04-18T17:13:12.870Z,40.10
2023-04-18T17:16:23.337Z,40.00
2023-04-18T17:19:34.996Z,40.00
2023-04-18T17:22:49.008Z,40.00
2023-04-18T17:25:57.202Z,39.90
2023-04-18T17:29:08.802Z,40.10
2023-04-18T17:32:20.234Z,40.20
2023-04-18T17:35:34.226Z,39.90
2023-04-18T17:38:44.326Z,39.90
2023-04-18T17:41:55.950Z,39.90
2023-04-18T17:45:10.769Z,40.00
2023-04-18T17:48:22.595Z,39.90
2023-04-18T17:51:32.371Z,39.60
2023-04-18T17:54:42.279Z,39.60
2023-04-18T17:57:52.314Z,39.60
2023-04-18T18:01:02.689Z,39.70
2023-04-18T18:04:10.686Z,39.50
2023-04-18T18:07:23.098Z,39.50
2023-04-18T18:10:37.046Z,39.50
2023-04-18T18:13:54.042Z,39.50
2023-04-18T18:17:05.348Z,39.50
2023-04-18T18:20:20.707Z,39.20
2023-04-18T18:23:32.534Z,39.40
2023-04-18T18:26:44.634Z,39.70
2023-04-18T18:29:55.932Z,39.60
2023-04-18T18:33:07.290Z,39.30
2023-04-18T18:36:18.533Z,38.70
2023-04-18T18:39:30.852Z,38.80
2023-04-18T18:42:40.360Z,38.90
2023-04-18T18:45:56.207Z,39.00
2023-04-18T18:49:10.383Z,39.10
2023-04-18T18:52:23.652Z,39.20
2023-04-18T18:55:34.454Z,39.10
2023-04-18T19:02:02.718Z,38.90
2023-04-18T19:05:18.574Z,39.30
2023-04-18T19:08:30.254Z,39.20
2023-04-18T19:11:41.227Z,38.70
2023-04-18T19:14:54.138Z,38.00
2023-04-18T19:18:02.498Z,38.20
2023-04-18T19:21:11.054Z,38.30
2023-04-18T19:24:21.565Z,38.70
2023-04-18T19:27:33.175Z,38.90
2023-04-18T19:30:44.421Z,38.90
2023-04-18T19:33:55.753Z,39.00
2023-04-18T19:37:06.199Z,38.90
2023-04-18T19:40:20.408Z,38.80
2023-04-18T19:43:34.075Z,38.70
2023-04-18T19:46:49.234Z,38.60
2023-04-18T19:50:00.501Z,38.40
2023-04-18T19:53:16.214Z,38.40
2023-04-18T19:56:27.946Z,38.20
2023-04-18T19:59:41.129Z,38.10
2023-04-18T20:02:49.651Z,38.20
2023-04-18T20:06:02.528Z,38.80
2023-04-18T20:09:14.171Z,39.00
2023-04-18T20:12:25.372Z,38.90
2023-04-18T20:15:38.620Z,38.70
2023-04-18T20:18:54.675Z,38.40
2023-04-18T20:22:02.676Z,38.20
2023-04-18T20:25:15.233Z,38.20
2023-04-18T20:28:27.234Z,38.30
2023-04-18T20:31:41.540Z,38.60
2023-04-18T20:34:51.983Z,38.90
2023-04-18T20:38:04.192Z,38.80
2023-04-18T20:41:16.584Z,39.10
2023-04-18T20:44:25.473Z,39.30
2023-04-18T20:47:35.263Z,39.30
2023-04-18T20:50:48.874Z,39.20
2023-04-18T20:54:01.422Z,38.80
2023-04-18T20:57:11.908Z,38.70
2023-04-18T21:00:23.607Z,38.60
2023-04-18T21:03:35.108Z,38.50
2023-04-18T21:06:46.774Z,38.90
2023-04-18T21:10:01.384Z,39.30
2023-04-18T21:13:13.188Z,39.10
2023-04-18T21:16:27.169Z,38.90
2023-04-18T21:19:38.691Z,38.80
2023-04-18T21:22:51.817Z,38.30
2023-04-18T21:26:00.675Z,38.20
2023-04-18T21:29:28.414Z,38.50
2023-04-18T21:32:39.559Z,38.70
2023-04-18T21:35:51.101Z,38.70
2023-04-18T21:39:02.834Z,38.90
2023-04-18T21:42:10.349Z,39.20
2023-04-18T21:45:21.836Z,39.40
2023-04-18T21:48:31.793Z,39.40
2023-04-18T21:51:41.280Z,39.10
2023-04-18T21:54:51.153Z,38.40
2023-04-18T21:58:04.647Z,38.50
2023-04-18T22:01:16.094Z,39.10
2023-04-18T22:04:26.836Z,40.40
2023-04-18T22:07:43.318Z,41.90
2023-04-18T22:10:46.387Z,42.90
2023-04-18T22:13:57.683Z,43.30
2023-04-18T22:17:09.882Z,43.30
2023-04-18T22:20:23.971Z,42.60
2023-04-18T22:23:33.399Z,42.80
2023-04-18T22:26:42.567Z,42.00
2023-04-18T22:29:54.391Z,41.20
2023-04-18T22:33:04.153Z,41.10
2023-04-18T22:36:17.781Z,41.40
2023-04-18T22:39:28.216Z,41.40
2023-04-18T22:42:38.726Z,41.40
2023-04-18T22:45:50.594Z,41.40
2023-04-18T22:49:00.120Z,41.40
2023-04-18T22:52:10.780Z,41.40
2023-04-18T22:55:22.474Z,41.60
2023-04-18T22:58:33.855Z,41.60
2023-04-18T23:01:44.839Z,41.60
2023-04-18T23:04:58.461Z,41.50
2023-04-18T23:08:09.946Z,42.00
2023-04-18T23:11:21.799Z,40.80
2023-04-18T23:14:31.299Z,40.40
2023-04-18T23:17:42.846Z,40.30
2023-04-18T23:20:50.719Z,40.70
2023-04-18T23:24:04.706Z,41.10
2023-04-18T23:27:14.345Z,41.20
2023-04-18T23:30:24.355Z,41.50
2023-04-18T23:33:35.816Z,40.90
2023-04-18T23:36:49.300Z,41.30
2023-04-18T23:39:58.795Z,41.20
2023-04-18T23:43:07.417Z,41.30
2023-04-18T23:46:15.684Z,41.00
2023-04-18T23:49:27.228Z,40.40
2023-04-18T23:52:40.014Z,40.20
2023-04-18T23:55:51.074Z,40.30
2023-04-18T23:59:02.459Z,40.30
